KBID

Block Island State Airport

Block Island, Rhode Island, USA
METAR KBID 181256Z AUTO 32018G32KT 10SM FEW039 M03/M11 A2983 RMK AO2 PK WND 33035/1211 SLP104 T10331111 FZRANO
Observed Flight Rules
Dec-18 @ 12:56 UTC (12 minutes ago) Visual Flight Rules
Wind Visibility Clouds
320° at 18 knots
 Gusting to 32 knots
10 miles
  • Few at 3,900' AGL
Temperatures Readings
Current -3°C / 27°F
Dewpoint -11°C / 12°F
Humidity 54%
Altimeter 29.83" Hg
Pressure 1010.4 hPa
Elevation 33
METAR KBID 181256Z AUTO 32018G32KT 10SM FEW039 M03/M11 A2983 RMK AO2 PK WND 33035/1211 SLP104 T10331111 FZRANO
Observed Flight Rules
Dec-18 @ 12:56 UTC
(12 minutes ago)
VFR
Wind Visibility
320° at 18 knots
 Gusting to 32 knots
10 miles
Clouds
  • Few at 3,900' AGL
Temperature Dewpoint
-3°C / 27°F -11°C / 12°F
Humidity Altimeter Pressure
54% 29.83" Hg 1010.4 hPa